sensor_id;sensor_type;location;lat;lon;timestamp;temperature;humidity
20432;DHT22;10375;49.136;10.366;2023-06-19T00:02:13;20.40;81.40
20432;DHT22;10375;49.136;10.366;2023-06-19T00:04:41;20.40;80.20
20432;DHT22;10375;49.136;10.366;2023-06-19T00:07:08;20.40;79.60
20432;DHT22;10375;49.136;10.366;2023-06-19T00:09:35;20.30;80.00
20432;DHT22;10375;49.136;10.366;2023-06-19T00:12:02;20.30;79.80
20432;DHT22;10375;49.136;10.366;2023-06-19T00:14:31;20.30;80.20
20432;DHT22;10375;49.136;10.366;2023-06-19T00:16:58;20.30;79.50
20432;DHT22;10375;49.136;10.366;2023-06-19T00:19:27;20.20;79.50
20432;DHT22;10375;49.136;10.366;2023-06-19T00:21:54;20.20;80.40
20432;DHT22;10375;49.136;10.366;2023-06-19T00:24:24;20.20;80.30
20432;DHT22;10375;49.136;10.366;2023-06-19T00:26:51;20.20;79.40
20432;DHT22;10375;49.136;10.366;2023-06-19T00:29:18;20.20;78.60
20432;DHT22;10375;49.136;10.366;2023-06-19T00:31:45;20.20;78.60
20432;DHT22;10375;49.136;10.366;2023-06-19T00:34:13;20.10;79.50
20432;DHT22;10375;49.136;10.366;2023-06-19T00:36:40;20.10;79.10
20432;DHT22;10375;49.136;10.366;2023-06-19T00:39:07;20.20;78.60
20432;DHT22;10375;49.136;10.366;2023-06-19T00:41:35;20.20;78.80
20432;DHT22;10375;49.136;10.366;2023-06-19T00:44:02;20.20;79.10
20432;DHT22;10375;49.136;10.366;2023-06-19T00:46:30;20.10;78.30
20432;DHT22;10375;49.136;10.366;2023-06-19T00:48:58;20.20;78.20
20432;DHT22;10375;49.136;10.366;2023-06-19T00:51:25;20.20;80.10
20432;DHT22;10375;49.136;10.366;2023-06-19T00:53:52;20.30;81.10
20432;DHT22;10375;49.136;10.366;2023-06-19T00:56:19;20.20;79.90
20432;DHT22;10375;49.136;10.366;2023-06-19T00:58:46;20.20;79.90
20432;DHT22;10375;49.136;10.366;2023-06-19T01:01:14;20.20;81.00
20432;DHT22;10375;49.136;10.366;2023-06-19T01:03:41;20.20;80.00
20432;DHT22;10375;49.136;10.366;2023-06-19T01:06:15;20.20;80.50
20432;DHT22;10375;49.136;10.366;2023-06-19T01:11:23;20.30;80.80
20432;DHT22;10375;49.136;10.366;2023-06-19T01:14:01;20.20;81.00
20432;DHT22;10375;49.136;10.366;2023-06-19T01:16:29;20.20;81.30
20432;DHT22;10375;49.136;10.366;2023-06-19T01:18:58;20.20;81.00
20432;DHT22;10375;49.136;10.366;2023-06-19T01:21:25;20.20;80.40
20432;DHT22;10375;49.136;10.366;2023-06-19T01:23:52;20.20;80.70
20432;DHT22;10375;49.136;10.366;2023-06-19T01:26:22;20.20;82.30
20432;DHT22;10375;49.136;10.366;2023-06-19T01:28:53;20.20;80.00
20432;DHT22;10375;49.136;10.366;2023-06-19T01:31:30;20.20;80.00
20432;DHT22;10375;49.136;10.366;2023-06-19T01:33:59;20.30;81.10
20432;DHT22;10375;49.136;10.366;2023-06-19T01:36:28;20.30;81.40
20432;DHT22;10375;49.136;10.366;2023-06-19T01:38:57;20.40;81.50
20432;DHT22;10375;49.136;10.366;2023-06-19T01:41:25;20.30;80.50
20432;DHT22;10375;49.136;10.366;2023-06-19T01:43:53;20.30;80.10
20432;DHT22;10375;49.136;10.366;2023-06-19T01:46:21;20.20;80.30
20432;DHT22;10375;49.136;10.366;2023-06-19T01:48:48;20.10;80.70
20432;DHT22;10375;49.136;10.366;2023-06-19T01:51:16;20.10;81.10
20432;DHT22;10375;49.136;10.366;2023-06-19T01:53:43;20.10;81.80
20432;DHT22;10375;49.136;10.366;2023-06-19T01:56:10;20.00;81.60
20432;DHT22;10375;49.136;10.366;2023-06-19T01:58:37;19.90;81.10
20432;DHT22;10375;49.136;10.366;2023-06-19T02:01:05;19.90;81.00
20432;DHT22;10375;49.136;10.366;2023-06-19T02:03:32;19.80;80.80
20432;DHT22;10375;49.136;10.366;2023-06-19T02:05:59;19.80;81.30
20432;DHT22;10375;49.136;10.366;2023-06-19T02:08:26;19.80;81.70
20432;DHT22;10375;49.136;10.366;2023-06-19T02:10:53;19.80;81.50
20432;DHT22;10375;49.136;10.366;2023-06-19T02:13:20;19.70;81.70
20432;DHT22;10375;49.136;10.366;2023-06-19T02:15:47;19.70;81.60
20432;DHT22;10375;49.136;10.366;2023-06-19T02:18:14;19.70;81.70
20432;DHT22;10375;49.136;10.366;2023-06-19T02:20:42;19.70;81.30
20432;DHT22;10375;49.136;10.366;2023-06-19T02:23:09;19.60;82.20
20432;DHT22;10375;49.136;10.366;2023-06-19T02:25:36;19.60;82.10
20432;DHT22;10375;49.136;10.366;2023-06-19T02:28:03;19.50;81.90
20432;DHT22;10375;49.136;10.366;2023-06-19T02:30:30;19.50;82.60
20432;DHT22;10375;49.136;10.366;2023-06-19T02:32:57;19.40;83.00
20432;DHT22;10375;49.136;10.366;2023-06-19T02:35:25;19.30;83.40
20432;DHT22;10375;49.136;10.366;2023-06-19T02:37:52;19.30;83.80
20432;DHT22;10375;49.136;10.366;2023-06-19T02:40:19;19.20;84.30
20432;DHT22;10375;49.136;10.366;2023-06-19T02:42:46;19.10;84.10
20432;DHT22;10375;49.136;10.366;2023-06-19T02:45:14;19.00;83.70
20432;DHT22;10375;49.136;10.366;2023-06-19T02:47:42;19.00;83.50
20432;DHT22;10375;49.136;10.366;2023-06-19T02:50:09;19.00;83.60
20432;DHT22;10375;49.136;10.366;2023-06-19T02:52:36;18.90;83.40
20432;DHT22;10375;49.136;10.366;2023-06-19T02:55:04;18.90;83.40
20432;DHT22;10375;49.136;10.366;2023-06-19T02:57:34;18.80;83.30
20432;DHT22;10375;49.136;10.366;2023-06-19T03:00:01;18.80;84.00
20432;DHT22;10375;49.136;10.366;2023-06-19T03:02:28;18.80;84.00
20432;DHT22;10375;49.136;10.366;2023-06-19T03:04:56;18.70;83.90
20432;DHT22;10375;49.136;10.366;2023-06-19T03:07:23;18.70;83.80
20432;DHT22;10375;49.136;10.366;2023-06-19T03:09:55;18.80;83.50
20432;DHT22;10375;49.136;10.366;2023-06-19T03:12:22;18.80;82.60
20432;DHT22;10375;49.136;10.366;2023-06-19T03:14:49;18.70;83.30
20432;DHT22;10375;49.136;10.366;2023-06-19T03:17:16;18.90;82.00
20432;DHT22;10375;49.136;10.366;2023-06-19T03:19:43;19.00;81.60
20432;DHT22;10375;49.136;10.366;2023-06-19T03:22:10;19.30;81.50
20432;DHT22;10375;49.136;10.366;2023-06-19T03:24:38;19.50;81.20
20432;DHT22;10375;49.136;10.366;2023-06-19T03:27:06;19.60;81.00
20432;DHT22;10375;49.136;10.366;2023-06-19T03:29:33;19.80;80.90
20432;DHT22;10375;49.136;10.366;2023-06-19T03:32:00;19.90;81.10
20432;DHT22;10375;49.136;10.366;2023-06-19T03:34:27;20.00;81.00
20432;DHT22;10375;49.136;10.366;2023-06-19T03:36:54;20.10;81.00
20432;DHT22;10375;49.136;10.366;2023-06-19T03:39:21;20.10;81.00
20432;DHT22;10375;49.136;10.366;2023-06-19T03:41:49;20.20;80.80
20432;DHT22;10375;49.136;10.366;2023-06-19T03:44:16;20.30;80.80
20432;DHT22;10375;49.136;10.366;2023-06-19T03:46:43;20.40;81.00
20432;DHT22;10375;49.136;10.366;2023-06-19T03:49:10;20.50;81.00
20432;DHT22;10375;49.136;10.366;2023-06-19T03:51:38;20.50;80.80
20432;DHT22;10375;49.136;10.366;2023-06-19T03:54:05;20.60;81.00
20432;DHT22;10375;49.136;10.366;2023-06-19T03:56:32;20.70;81.00
20432;DHT22;10375;49.136;10.366;2023-06-19T03:58:59;20.80;81.10
20432;DHT22;10375;49.136;10.366;2023-06-19T04:01:26;20.90;81.00
20432;DHT22;10375;49.136;10.366;2023-06-19T04:03:53;21.00;80.90
20432;DHT22;10375;49.136;10.366;2023-06-19T04:06:21;21.10;80.70
20432;DHT22;10375;49.136;10.366;2023-06-19T04:08:48;21.30;80.50
20432;DHT22;10375;49.136;10.366;2023-06-19T04:11:15;21.40;80.30
20432;DHT22;10375;49.136;10.366;2023-06-19T04:13:42;21.60;80.10
20432;DHT22;10375;49.136;10.366;2023-06-19T04:16:09;21.60;79.80
20432;DHT22;10375;49.136;10.366;2023-06-19T04:18:36;21.70;79.80
20432;DHT22;10375;49.136;10.366;2023-06-19T04:21:03;21.80;80.00
20432;DHT22;10375;49.136;10.366;2023-06-19T04:23:32;21.80;80.10
20432;DHT22;10375;49.136;10.366;2023-06-19T04:25:59;21.80;80.00
20432;DHT22;10375;49.136;10.366;2023-06-19T04:28:26;21.90;79.80
20432;DHT22;10375;49.136;10.366;2023-06-19T04:30:53;22.00;79.60
20432;DHT22;10375;49.136;10.366;2023-06-19T04:33:28;22.00;79.70
20432;DHT22;10375;49.136;10.366;2023-06-19T04:35:56;22.10;79.50
20432;DHT22;10375;49.136;10.366;2023-06-19T04:38:23;22.20;79.50
20432;DHT22;10375;49.136;10.366;2023-06-19T04:40:51;22.30;79.60
20432;DHT22;10375;49.136;10.366;2023-06-19T04:43:19;22.30;79.20
20432;DHT22;10375;49.136;10.366;2023-06-19T04:45:46;22.20;80.50
20432;DHT22;10375;49.136;10.366;2023-06-19T04:48:13;22.10;81.10
20432;DHT22;10375;49.136;10.366;2023-06-19T04:50:40;22.00;81.70
20432;DHT22;10375;49.136;10.366;2023-06-19T04:53:08;22.10;81.80
20432;DHT22;10375;49.136;10.366;2023-06-19T04:55:35;22.20;81.70
20432;DHT22;10375;49.136;10.366;2023-06-19T04:58:02;22.40;81.60
20432;DHT22;10375;49.136;10.366;2023-06-19T05:00:29;22.50;81.20
20432;DHT22;10375;49.136;10.366;2023-06-19T05:02:56;22.50;81.10
20432;DHT22;10375;49.136;10.366;2023-06-19T05:05:27;22.40;81.40
20432;DHT22;10375;49.136;10.366;2023-06-19T05:07:57;22.40;81.60
20432;DHT22;10375;49.136;10.366;2023-06-19T05:10:24;22.40;81.80
20432;DHT22;10375;49.136;10.366;2023-06-19T05:12:51;22.40;82.10
20432;DHT22;10375;49.136;10.366;2023-06-19T05:15:18;22.40;81.90
20432;DHT22;10375;49.136;10.366;2023-06-19T05:17:46;22.40;82.20
20432;DHT22;10375;49.136;10.366;2023-06-19T05:20:13;22.50;82.30
20432;DHT22;10375;49.136;10.366;2023-06-19T05:22:40;22.50;82.30
20432;DHT22;10375;49.136;10.366;2023-06-19T05:25:08;22.50;82.10
20432;DHT22;10375;49.136;10.366;2023-06-19T05:27:37;22.50;82.10
20432;DHT22;10375;49.136;10.366;2023-06-19T05:30:05;22.60;81.60
20432;DHT22;10375;49.136;10.366;2023-06-19T05:32:32;22.60;81.50
20432;DHT22;10375;49.136;10.366;2023-06-19T05:34:59;22.70;80.90
20432;DHT22;10375;49.136;10.366;2023-06-19T05:37:27;22.60;80.80
20432;DHT22;10375;49.136;10.366;2023-06-19T05:39:54;22.50;81.10
20432;DHT22;10375;49.136;10.366;2023-06-19T05:42:21;22.50;81.50
20432;DHT22;10375;49.136;10.366;2023-06-19T05:44:48;22.40;81.60
20432;DHT22;10375;49.136;10.366;2023-06-19T05:47:16;22.40;82.20
20432;DHT22;10375;49.136;10.366;2023-06-19T05:49:47;22.40;81.90
20432;DHT22;10375;49.136;10.366;2023-06-19T05:52:14;22.40;82.40
20432;DHT22;10375;49.136;10.366;2023-06-19T05:54:42;22.50;82.40
20432;DHT22;10375;49.136;10.366;2023-06-19T05:57:09;22.50;83.00
20432;DHT22;10375;49.136;10.366;2023-06-19T05:59:38;22.60;82.20
20432;DHT22;10375;49.136;10.366;2023-06-19T06:02:06;22.70;82.30
20432;DHT22;10375;49.136;10.366;2023-06-19T06:04:34;22.80;81.90
20432;DHT22;10375;49.136;10.366;2023-06-19T06:07:01;22.80;81.80
20432;DHT22;10375;49.136;10.366;2023-06-19T06:09:28;22.80;81.70
20432;DHT22;10375;49.136;10.366;2023-06-19T06:11:55;22.80;81.80
20432;DHT22;10375;49.136;10.366;2023-06-19T06:14:23;22.80;81.80
20432;DHT22;10375;49.136;10.366;2023-06-19T06:16:50;22.90;83.10
20432;DHT22;10375;49.136;10.366;2023-06-19T06:19:19;22.90;82.30
20432;DHT22;10375;49.136;10.366;2023-06-19T06:21:46;22.90;82.00
20432;DHT22;10375;49.136;10.366;2023-06-19T06:24:13;23.00;81.80
20432;DHT22;10375;49.136;10.366;2023-06-19T06:26:41;23.00;81.30
20432;DHT22;10375;49.136;10.366;2023-06-19T06:29:08;23.00;81.40
20432;DHT22;10375;49.136;10.366;2023-06-19T06:31:38;23.00;81.80
20432;DHT22;10375;49.136;10.366;2023-06-19T06:34:05;23.00;81.80
20432;DHT22;10375;49.136;10.366;2023-06-19T06:36:32;23.10;81.50
20432;DHT22;10375;49.136;10.366;2023-06-19T06:39:05;23.20;81.60
20432;DHT22;10375;49.136;10.366;2023-06-19T06:41:32;23.30;81.30
20432;DHT22;10375;49.136;10.366;2023-06-19T06:44:01;23.40;81.00
20432;DHT22;10375;49.136;10.366;2023-06-19T06:46:28;23.40;80.60
20432;DHT22;10375;49.136;10.366;2023-06-19T06:48:55;23.40;80.50
20432;DHT22;10375;49.136;10.366;2023-06-19T06:51:22;23.50;80.80
20432;DHT22;10375;49.136;10.366;2023-06-19T06:53:50;23.60;81.10
20432;DHT22;10375;49.136;10.366;2023-06-19T06:56:17;23.60;80.60
20432;DHT22;10375;49.136;10.366;2023-06-19T06:58:44;23.70;80.60
20432;DHT22;10375;49.136;10.366;2023-06-19T07:01:14;23.70;81.00
20432;DHT22;10375;49.136;10.366;2023-06-19T07:03:41;23.90;80.50
20432;DHT22;10375;49.136;10.366;2023-06-19T07:06:08;23.90;80.30
20432;DHT22;10375;49.136;10.366;2023-06-19T07:08:36;24.00;79.80
20432;DHT22;10375;49.136;10.366;2023-06-19T07:11:04;24.30;79.80
20432;DHT22;10375;49.136;10.366;2023-06-19T07:13:31;24.50;78.10
20432;DHT22;10375;49.136;10.366;2023-06-19T07:15:58;24.60;77.30
20432;DHT22;10375;49.136;10.366;2023-06-19T07:18:27;24.60;77.20
20432;DHT22;10375;49.136;10.366;2023-06-19T07:20:56;24.50;77.40
20432;DHT22;10375;49.136;10.366;2023-06-19T07:23:23;24.30;78.30
20432;DHT22;10375;49.136;10.366;2023-06-19T07:25:51;24.20;77.60
20432;DHT22;10375;49.136;10.366;2023-06-19T07:28:18;24.10;78.40
20432;DHT22;10375;49.136;10.366;2023-06-19T07:30:45;24.20;78.70
20432;DHT22;10375;49.136;10.366;2023-06-19T07:33:14;24.20;78.50
20432;DHT22;10375;49.136;10.366;2023-06-19T07:35:42;24.20;78.00
20432;DHT22;10375;49.136;10.366;2023-06-19T07:38:09;24.30;78.60
20432;DHT22;10375;49.136;10.366;2023-06-19T07:40:36;24.20;78.10
20432;DHT22;10375;49.136;10.366;2023-06-19T07:43:05;24.20;78.60
20432;DHT22;10375;49.136;10.366;2023-06-19T07:45:32;24.40;77.80
20432;DHT22;10375;49.136;10.366;2023-06-19T07:47:59;24.50;77.10
20432;DHT22;10375;49.136;10.366;2023-06-19T07:50:26;24.60;77.60
20432;DHT22;10375;49.136;10.366;2023-06-19T07:52:54;24.70;76.90
20432;DHT22;10375;49.136;10.366;2023-06-19T07:55:22;24.80;77.20
20432;DHT22;10375;49.136;10.366;2023-06-19T07:57:49;24.90;76.80
20432;DHT22;10375;49.136;10.366;2023-06-19T08:00:16;25.20;75.90
20432;DHT22;10375;49.136;10.366;2023-06-19T08:02:43;25.20;77.00
20432;DHT22;10375;49.136;10.366;2023-06-19T08:05:11;25.30;76.50
20432;DHT22;10375;49.136;10.366;2023-06-19T08:07:38;25.50;75.30
20432;DHT22;10375;49.136;10.366;2023-06-19T08:10:06;25.60;74.50
20432;DHT22;10375;49.136;10.366;2023-06-19T08:12:42;25.80;73.90
20432;DHT22;10375;49.136;10.366;2023-06-19T08:15:10;26.10;73.50
20432;DHT22;10375;49.136;10.366;2023-06-19T08:17:37;26.50;72.50
20432;DHT22;10375;49.136;10.366;2023-06-19T08:20:05;26.60;71.90
20432;DHT22;10375;49.136;10.366;2023-06-19T08:22:32;26.80;72.10
20432;DHT22;10375;49.136;10.366;2023-06-19T08:24:59;26.80;71.70
20432;DHT22;10375;49.136;10.366;2023-06-19T08:27:26;26.80;71.80
20432;DHT22;10375;49.136;10.366;2023-06-19T08:29:53;27.20;70.90
20432;DHT22;10375;49.136;10.366;2023-06-19T08:32:20;27.90;68.70
20432;DHT22;10375;49.136;10.366;2023-06-19T08:34:48;28.50;68.00
20432;DHT22;10375;49.136;10.366;2023-06-19T08:37:15;28.80;65.50
20432;DHT22;10375;49.136;10.366;2023-06-19T08:39:42;29.00;65.40
20432;DHT22;10375;49.136;10.366;2023-06-19T08:42:09;29.20;65.10
20432;DHT22;10375;49.136;10.366;2023-06-19T08:44:37;29.30;64.80
20432;DHT22;10375;49.136;10.366;2023-06-19T08:47:05;29.40;64.00
20432;DHT22;10375;49.136;10.366;2023-06-19T08:49:34;29.20;65.30
20432;DHT22;10375;49.136;10.366;2023-06-19T08:52:02;29.10;65.50
20432;DHT22;10375;49.136;10.366;2023-06-19T08:54:33;29.30;66.40
20432;DHT22;10375;49.136;10.366;2023-06-19T08:57:01;30.30;64.80
20432;DHT22;10375;49.136;10.366;2023-06-19T08:59:30;31.30;61.50
20432;DHT22;10375;49.136;10.366;2023-06-19T09:01:59;31.70;59.00
20432;DHT22;10375;49.136;10.366;2023-06-19T09:04:26;31.30;60.00
20432;DHT22;10375;49.136;10.366;2023-06-19T09:07:04;31.10;61.10
20432;DHT22;10375;49.136;10.366;2023-06-19T09:09:31;30.40;62.00
20432;DHT22;10375;49.136;10.366;2023-06-19T09:14:34;29.90;62.00
20432;DHT22;10375;49.136;10.366;2023-06-19T09:17:16;30.10;62.50
20432;DHT22;10375;49.136;10.366;2023-06-19T09:19:49;30.50;63.10
20432;DHT22;10375;49.136;10.366;2023-06-19T09:22:17;31.00;62.50
20432;DHT22;10375;49.136;10.366;2023-06-19T09:24:48;31.60;60.20
20432;DHT22;10375;49.136;10.366;2023-06-19T09:27:20;32.10;59.10
20432;DHT22;10375;49.136;10.366;2023-06-19T09:29:49;32.50;58.20
20432;DHT22;10375;49.136;10.366;2023-06-19T09:34:47;32.80;56.90
20432;DHT22;10375;49.136;10.366;2023-06-19T09:37:24;32.50;56.60
20432;DHT22;10375;49.136;10.366;2023-06-19T09:39:57;32.40;57.60
20432;DHT22;10375;49.136;10.366;2023-06-19T09:42:30;32.30;57.20
20432;DHT22;10375;49.136;10.366;2023-06-19T09:45:07;32.20;58.40
20432;DHT22;10375;49.136;10.366;2023-06-19T09:47:44;32.30;57.50
20432;DHT22;10375;49.136;10.366;2023-06-19T09:50:16;32.40;58.00
20432;DHT22;10375;49.136;10.366;2023-06-19T09:52:44;31.80;57.40
20432;DHT22;10375;49.136;10.366;2023-06-19T09:55:13;31.30;59.00
20432;DHT22;10375;49.136;10.366;2023-06-19T09:57:41;30.60;59.30
20432;DHT22;10375;49.136;10.366;2023-06-19T10:00:09;30.30;60.90
20432;DHT22;10375;49.136;10.366;2023-06-19T10:02:44;31.00;61.40
20432;DHT22;10375;49.136;10.366;2023-06-19T10:05:12;31.90;59.70
20432;DHT22;10375;49.136;10.366;2023-06-19T10:07:43;32.40;57.70
20432;DHT22;10375;49.136;10.366;2023-06-19T10:10:30;32.40;57.30
20432;DHT22;10375;49.136;10.366;2023-06-19T10:13:13;31.90;57.90
20432;DHT22;10375;49.136;10.366;2023-06-19T10:15:44;31.50;58.90
20432;DHT22;10375;49.136;10.366;2023-06-19T10:18:16;31.50;59.10
20432;DHT22;10375;49.136;10.366;2023-06-19T10:20:44;32.00;59.60
20432;DHT22;10375;49.136;10.366;2023-06-19T10:23:19;32.40;58.20
20432;DHT22;10375;49.136;10.366;2023-06-19T10:25:49;32.50;58.10
20432;DHT22;10375;49.136;10.366;2023-06-19T10:28:25;33.00;57.50
20432;DHT22;10375;49.136;10.366;2023-06-19T10:31:00;33.40;57.20
20432;DHT22;10375;49.136;10.366;2023-06-19T10:33:36;33.20;55.80
20432;DHT22;10375;49.136;10.366;2023-06-19T10:36:18;32.70;57.00
20432;DHT22;10375;49.136;10.366;2023-06-19T10:38:46;32.20;57.90
20432;DHT22;10375;49.136;10.366;2023-06-19T10:41:17;31.70;58.60
20432;DHT22;10375;49.136;10.366;2023-06-19T10:44:03;31.90;59.70
20432;DHT22;10375;49.136;10.366;2023-06-19T10:46:35;32.00;57.80
20432;DHT22;10375;49.136;10.366;2023-06-19T10:49:04;31.80;59.20
20432;DHT22;10375;49.136;10.366;2023-06-19T10:51:39;31.70;59.20
20432;DHT22;10375;49.136;10.366;2023-06-19T10:54:06;31.60;59.50
20432;DHT22;10375;49.136;10.366;2023-06-19T10:56:36;31.70;59.30
20432;DHT22;10375;49.136;10.366;2023-06-19T10:59:09;31.80;60.00
20432;DHT22;10375;49.136;10.366;2023-06-19T11:01:38;32.10;60.20
20432;DHT22;10375;49.136;10.366;2023-06-19T11:04:08;32.20;59.60
20432;DHT22;10375;49.136;10.366;2023-06-19T11:06:36;32.40;59.10
20432;DHT22;10375;49.136;10.366;2023-06-19T11:09:05;32.40;59.20
20432;DHT22;10375;49.136;10.366;2023-06-19T11:11:39;32.40;59.20
20432;DHT22;10375;49.136;10.366;2023-06-19T11:14:07;32.80;58.80
20432;DHT22;10375;49.136;10.366;2023-06-19T11:16:37;33.80;57.70
20432;DHT22;10375;49.136;10.366;2023-06-19T11:19:06;34.60;56.80
20432;DHT22;10375;49.136;10.366;2023-06-19T11:21:35;35.00;55.50
20432;DHT22;10375;49.136;10.366;2023-06-19T11:24:11;35.20;55.50
20432;DHT22;10375;49.136;10.366;2023-06-19T11:26:40;35.20;54.70
20432;DHT22;10375;49.136;10.366;2023-06-19T11:29:21;35.00;54.70
20432;DHT22;10375;49.136;10.366;2023-06-19T11:31:50;34.80;54.20
20432;DHT22;10375;49.136;10.366;2023-06-19T11:34:17;34.40;55.50
20432;DHT22;10375;49.136;10.366;2023-06-19T11:36:50;34.40;55.40
20432;DHT22;10375;49.136;10.366;2023-06-19T11:39:17;33.80;55.60
20432;DHT22;10375;49.136;10.366;2023-06-19T11:41:44;33.30;57.80
20432;DHT22;10375;49.136;10.366;2023-06-19T11:44:12;33.30;57.30
20432;DHT22;10375;49.136;10.366;2023-06-19T11:46:39;33.50;57.00
20432;DHT22;10375;49.136;10.366;2023-06-19T11:49:16;33.80;55.50
20432;DHT22;10375;49.136;10.366;2023-06-19T11:51:45;33.60;57.00
20432;DHT22;10375;49.136;10.366;2023-06-19T11:54:13;33.90;56.40
20432;DHT22;10375;49.136;10.366;2023-06-19T11:56:45;34.00;56.10
20432;DHT22;10375;49.136;10.366;2023-06-19T11:59:13;34.30;54.00
20432;DHT22;10375;49.136;10.366;2023-06-19T12:01:41;34.40;55.20
20432;DHT22;10375;49.136;10.366;2023-06-19T12:04:08;34.60;53.50
20432;DHT22;10375;49.136;10.366;2023-06-19T12:06:35;34.90;54.70
20432;DHT22;10375;49.136;10.366;2023-06-19T12:09:04;35.40;53.40
20432;DHT22;10375;49.136;10.366;2023-06-19T12:11:33;35.70;53.00
20432;DHT22;10375;49.136;10.366;2023-06-19T12:14:01;35.80;52.10
20432;DHT22;10375;49.136;10.366;2023-06-19T12:16:28;35.80;51.90
20432;DHT22;10375;49.136;10.366;2023-06-19T12:18:55;35.80;53.00
20432;DHT22;10375;49.136;10.366;2023-06-19T12:21:22;35.70;52.90
20432;DHT22;10375;49.136;10.366;2023-06-19T12:24:03;35.80;52.30
20432;DHT22;10375;49.136;10.366;2023-06-19T12:26:31;35.90;51.70
20432;DHT22;10375;49.136;10.366;2023-06-19T12:29:04;35.90;52.50
20432;DHT22;10375;49.136;10.366;2023-06-19T12:31:33;35.50;51.40
20432;DHT22;10375;49.136;10.366;2023-06-19T12:34:00;35.30;53.60
20432;DHT22;10375;49.136;10.366;2023-06-19T12:36:46;35.00;52.40
20432;DHT22;10375;49.136;10.366;2023-06-19T12:39:13;34.50;52.70
20432;DHT22;10375;49.136;10.366;2023-06-19T12:41:43;33.80;54.10
20432;DHT22;10375;49.136;10.366;2023-06-19T12:44:10;33.30;55.20
20432;DHT22;10375;49.136;10.366;2023-06-19T12:46:38;33.00;56.30
20432;DHT22;10375;49.136;10.366;2023-06-19T12:49:06;32.70;55.70
20432;DHT22;10375;49.136;10.366;2023-06-19T12:51:34;32.80;55.90
20432;DHT22;10375;49.136;10.366;2023-06-19T12:54:01;32.90;55.90
20432;DHT22;10375;49.136;10.366;2023-06-19T12:56:28;33.20;55.60
20432;DHT22;10375;49.136;10.366;2023-06-19T12:58:56;33.50;55.10
20432;DHT22;10375;49.136;10.366;2023-06-19T13:01:23;33.40;55.20
20432;DHT22;10375;49.136;10.366;2023-06-19T13:03:50;32.80;54.90
20432;DHT22;10375;49.136;10.366;2023-06-19T13:06:18;32.50;56.70
20432;DHT22;10375;49.136;10.366;2023-06-19T13:08:46;32.10;56.80
20432;DHT22;10375;49.136;10.366;2023-06-19T13:11:13;32.10;56.90
20432;DHT22;10375;49.136;10.366;2023-06-19T13:13:40;32.00;57.80
20432;DHT22;10375;49.136;10.366;2023-06-19T13:16:07;31.40;57.00
20432;DHT22;10375;49.136;10.366;2023-06-19T13:18:40;31.20;58.60
20432;DHT22;10375;49.136;10.366;2023-06-19T13:21:07;31.30;58.20
20432;DHT22;10375;49.136;10.366;2023-06-19T13:23:34;31.30;58.40
20432;DHT22;10375;49.136;10.366;2023-06-19T13:26:02;31.30;59.50
20432;DHT22;10375;49.136;10.366;2023-06-19T13:28:29;31.40;58.40
20432;DHT22;10375;49.136;10.366;2023-06-19T13:30:56;31.50;58.20
20432;DHT22;10375;49.136;10.366;2023-06-19T13:33:24;31.60;58.80
20432;DHT22;10375;49.136;10.366;2023-06-19T13:35:51;31.60;58.30
20432;DHT22;10375;49.136;10.366;2023-06-19T13:38:19;31.50;58.30
20432;DHT22;10375;49.136;10.366;2023-06-19T13:40:46;31.40;58.00
20432;DHT22;10375;49.136;10.366;2023-06-19T13:43:14;31.50;58.00
20432;DHT22;10375;49.136;10.366;2023-06-19T13:45:41;31.50;58.00
20432;DHT22;10375;49.136;10.366;2023-06-19T13:48:09;31.30;58.00
20432;DHT22;10375;49.136;10.366;2023-06-19T13:50:36;31.30;59.00
20432;DHT22;10375;49.136;10.366;2023-06-19T13:53:03;31.30;59.50
20432;DHT22;10375;49.136;10.366;2023-06-19T13:55:30;31.10;58.20
20432;DHT22;10375;49.136;10.366;2023-06-19T13:57:58;30.90;59.30
20432;DHT22;10375;49.136;10.366;2023-06-19T14:00:25;30.70;59.50
20432;DHT22;10375;49.136;10.366;2023-06-19T14:02:52;30.50;59.60
20432;DHT22;10375;49.136;10.366;2023-06-19T14:05:20;30.60;60.90
20432;DHT22;10375;49.136;10.366;2023-06-19T14:07:47;30.20;63.00
20432;DHT22;10375;49.136;10.366;2023-06-19T14:10:14;30.20;63.10
20432;DHT22;10375;49.136;10.366;2023-06-19T14:12:42;30.20;62.80
20432;DHT22;10375;49.136;10.366;2023-06-19T14:15:09;30.30;63.20
20432;DHT22;10375;49.136;10.366;2023-06-19T14:17:37;30.70;63.70
20432;DHT22;10375;49.136;10.366;2023-06-19T14:20:04;31.00;61.20
20432;DHT22;10375;49.136;10.366;2023-06-19T14:22:32;30.70;62.00
20432;DHT22;10375;49.136;10.366;2023-06-19T14:24:59;30.50;62.80
20432;DHT22;10375;49.136;10.366;2023-06-19T14:27:29;30.40;63.50
20432;DHT22;10375;49.136;10.366;2023-06-19T14:29:56;30.40;61.60
20432;DHT22;10375;49.136;10.366;2023-06-19T14:32:23;30.60;62.50
20432;DHT22;10375;49.136;10.366;2023-06-19T14:34:51;30.60;62.40
20432;DHT22;10375;49.136;10.366;2023-06-19T14:37:19;30.70;61.50
20432;DHT22;10375;49.136;10.366;2023-06-19T14:39:47;30.70;61.20
20432;DHT22;10375;49.136;10.366;2023-06-19T14:42:15;30.80;61.00
20432;DHT22;10375;49.136;10.366;2023-06-19T14:44:42;30.90;60.30
20432;DHT22;10375;49.136;10.366;2023-06-19T14:47:09;30.70;59.90
20432;DHT22;10375;49.136;10.366;2023-06-19T14:49:36;30.40;60.80
20432;DHT22;10375;49.136;10.366;2023-06-19T14:52:03;30.30;61.40
20432;DHT22;10375;49.136;10.366;2023-06-19T14:54:31;30.20;61.10
20432;DHT22;10375;49.136;10.366;2023-06-19T14:56:58;30.20;62.40
20432;DHT22;10375;49.136;10.366;2023-06-19T14:59:25;30.10;61.30
20432;DHT22;10375;49.136;10.366;2023-06-19T15:01:52;30.00;62.00
20432;DHT22;10375;49.136;10.366;2023-06-19T15:04:19;30.00;62.70
20432;DHT22;10375;49.136;10.366;2023-06-19T15:06:46;30.40;62.20
20432;DHT22;10375;49.136;10.366;2023-06-19T15:09:13;30.80;61.10
20432;DHT22;10375;49.136;10.366;2023-06-19T15:11:41;31.30;61.30
20432;DHT22;10375;49.136;10.366;2023-06-19T15:14:08;31.70;60.10
20432;DHT22;10375;49.136;10.366;2023-06-19T15:16:35;32.00;58.60
20432;DHT22;10375;49.136;10.366;2023-06-19T15:19:04;32.00;58.70
20432;DHT22;10375;49.136;10.366;2023-06-19T15:21:31;32.00;58.90
20432;DHT22;10375;49.136;10.366;2023-06-19T15:23:58;32.10;59.00
20432;DHT22;10375;49.136;10.366;2023-06-19T15:26:25;32.30;58.20
20432;DHT22;10375;49.136;10.366;2023-06-19T15:28:53;32.40;57.80
20432;DHT22;10375;49.136;10.366;2023-06-19T15:31:25;32.40;58.10